Time;durP1;ratioP1;P1;durP2;ratioP2;P2;SDS_P1;SDS_P2;PMS_P1;PMS_P2;Temp;Humidity;BMP_temperature;BMP_pressure;BME280_temperature;BME280_humidity;BME280_pressure;Samples;Min_cycle;Max_cycle;Signal;HPM_P1;HPM_P2
2022/06/14 00:00:55;;;;;;;10.88;1.33;;;41.00;11.40;;;;;;5089223;28;20063;-61
2022/06/14 00:03:42;;;;;;;6.97;0.98;;;40.90;12.00;;;;;;5074831;28;20048;-61
2022/06/14 00:06:23;;;;;;;6.95;1.40;;;40.90;12.30;;;;;;5089160;28;20094;-60
2022/06/14 00:08:51;;;;;;;7.45;0.90;;;40.70;12.20;;;;;;5073088;28;20041;-60
2022/06/14 00:11:26;;;;;;;7.05;1.42;;;40.60;12.40;;;;;;5088616;28;20068;-61
2022/06/14 00:13:54;;;;;;;7.35;1.02;;;40.50;12.70;;;;;;5088623;28;20052;-61
2022/06/14 00:16:23;;;;;;;6.40;1.20;;;40.30;12.40;;;;;;5089554;28;20137;-60
2022/06/14 00:18:49;;;;;;;12.25;1.40;;;40.40;12.60;;;;;;5087127;28;20041;-58
2022/06/14 00:21:17;;;;;;;12.52;1.90;;;40.40;12.70;;;;;;5088883;28;20058;-61
2022/06/14 00:23:44;;;;;;;6.03;1.40;;;40.10;12.40;;;;;;5069486;28;20538;-60
2022/06/14 00:26:11;;;;;;;7.15;1.50;;;40.20;12.50;;;;;;5087802;28;20366;-63
2022/06/14 00:28:40;;;;;;;7.68;1.50;;;40.00;12.50;;;;;;5087575;28;20145;-61
2022/06/14 00:31:12;;;;;;;4.80;1.33;;;39.90;12.50;;;;;;5089977;28;20066;-61
2022/06/14 00:33:39;;;;;;;4.20;1.05;;;40.00;12.70;;;;;;5086509;28;20080;-60
2022/06/14 00:36:18;;;;;;;5.70;1.13;;;40.00;12.50;;;;;;5089688;28;20043;-61
2022/06/14 00:38:45;;;;;;;5.97;0.85;;;39.80;12.50;;;;;;5089174;28;20130;-61
2022/06/14 00:41:37;;;;;;;6.07;0.90;;;39.60;12.50;;;;;;5087200;28;20076;-61
2022/06/14 00:44:05;;;;;;;5.15;0.77;;;39.50;12.50;;;;;;5087944;28;20045;-61
2022/06/14 00:47:09;;;;;;;4.00;0.90;;;39.50;12.50;;;;;;5088376;28;20082;-61
2022/06/14 00:49:59;;;;;;;3.28;1.10;;;39.50;12.80;;;;;;5085327;28;20072;-61
2022/06/14 00:52:29;;;;;;;12.38;1.00;;;39.30;12.30;;;;;;5087025;28;20070;-61
2022/06/14 00:55:02;;;;;;;2.53;0.80;;;39.30;12.80;;;;;;5088195;28;20046;-61
2022/06/14 00:57:36;;;;;;;4.43;1.10;;;39.30;12.50;;;;;;5087101;28;20518;-61
2022/06/14 01:00:08;;;;;;;3.45;0.85;;;39.20;12.70;;;;;;5090583;28;20074;-61
2022/06/14 01:02:48;;;;;;;9.93;0.90;;;39.10;12.70;;;;;;5071724;28;20125;-61
2022/06/14 01:05:21;;;;;;;6.60;0.90;;;38.90;12.60;;;;;;5072764;28;20094;-60
2022/06/14 01:07:53;;;;;;;5.63;1.08;;;38.90;12.70;;;;;;5086119;28;20414;-60
2022/06/14 01:10:30;;;;;;;10.20;1.20;;;38.90;12.30;;;;;;5087782;28;21087;-60
2022/06/14 01:13:01;;;;;;;8.13;1.40;;;38.50;12.30;;;;;;5087282;28;20065;-59
2022/06/14 01:15:31;;;;;;;12.60;1.70;;;38.50;12.40;;;;;;5086942;28;20064;-62
2022/06/14 01:18:08;;;;;;;7.72;2.33;;;38.60;12.60;;;;;;5086965;28;20814;-58
2022/06/14 01:20:36;;;;;;;10.77;1.60;;;38.50;12.20;;;;;;5086682;28;20077;-60
2022/06/14 01:23:05;;;;;;;9.05;1.60;;;38.20;12.40;;;;;;5084408;28;20077;-60
2022/06/14 01:25:43;;;;;;;9.65;1.70;;;38.20;12.60;;;;;;5080261;28;20077;-59
2022/06/14 01:28:10;;;;;;;5.32;1.60;;;38.10;12.90;;;;;;5088209;22;20549;-61
2022/06/14 01:30:43;;;;;;;6.95;1.75;;;38.00;13.10;;;;;;5026835;28;20130;-65
2022/06/14 01:33:11;;;;;;;12.27;2.15;;;37.90;12.90;;;;;;5028370;28;20427;-60
2022/06/14 01:35:42;;;;;;;15.23;2.25;;;37.70;13.50;;;;;;5010633;28;20064;-62
2022/06/14 01:38:12;;;;;;;9.93;1.63;;;37.60;13.20;;;;;;5026757;28;20070;-61
2022/06/14 01:40:57;;;;;;;7.60;1.85;;;37.40;13.00;;;;;;5042143;28;20089;-60
2022/06/14 01:43:38;;;;;;;9.55;1.60;;;37.30;13.20;;;;;;5041632;28;20061;-61
2022/06/14 01:46:13;;;;;;;9.80;1.95;;;37.10;13.40;;;;;;5034425;28;20434;-61
2022/06/14 01:48:43;;;;;;;3.40;1.57;;;37.00;13.40;;;;;;5026240;28;20066;-60
2022/06/14 01:54:25;;;;;;;10.63;2.08;;;36.80;13.50;;;;;;5027136;28;20136;-59
2022/06/14 01:57:13;;;;;;;8.15;1.98;;;36.70;13.50;;;;;;5043329;28;20065;-60
2022/06/14 02:00:08;;;;;;;6.05;1.50;;;36.60;13.70;;;;;;5026534;28;20063;-60
2022/06/14 02:02:45;;;;;;;15.75;2.05;;;36.50;13.80;;;;;;5043774;28;20061;-60
2022/06/14 02:05:24;;;;;;;11.18;2.20;;;36.50;13.90;;;;;;5026127;28;20094;-59
2022/06/14 02:08:06;;;;;;;9.38;1.67;;;36.30;14.40;;;;;;5026483;28;20079;-61
2022/06/14 02:10:56;;;;;;;14.77;2.83;;;36.30;14.00;;;;;;5057721;28;20451;-65
2022/06/14 02:13:34;;;;;;;15.13;2.75;;;36.20;14.20;;;;;;5025606;28;20074;-62
2022/06/14 02:16:33;;;;;;;13.35;2.53;;;36.10;14.30;;;;;;5042135;28;20071;-61
2022/06/14 02:19:13;;;;;;;10.98;2.88;;;35.90;14.80;;;;;;4975244;28;20084;-62
2022/06/14 02:21:51;;;;;;;15.75;2.72;;;35.80;15.70;;;;;;5025430;28;20200;-62
2022/06/14 02:24:36;;;;;;;21.23;2.65;;;35.60;16.00;;;;;;5025529;28;20078;-62
2022/06/14 02:27:28;;;;;;;12.07;2.40;;;35.40;16.30;;;;;;5025757;28;20540;-62
2022/06/14 02:30:04;;;;;;;25.15;3.50;;;35.30;16.70;;;;;;5029564;28;20090;-62
2022/06/14 02:32:42;;;;;;;26.83;3.13;;;35.00;16.50;;;;;;5030017;28;20122;-62
2022/06/14 02:35:43;;;;;;;16.92;3.22;;;35.00;16.70;;;;;;5030246;28;20620;-63
2022/06/14 02:38:17;;;;;;;15.35;3.28;;;34.90;16.40;;;;;;5009360;28;20090;-62
2022/06/14 02:40:56;;;;;;;23.80;4.00;;;34.70;16.10;;;;;;5008929;28;20079;-62
2022/06/14 02:43:48;;;;;;;28.20;4.55;;;34.70;16.00;;;;;;4976188;28;20106;-61
2022/06/14 02:46:27;;;;;;;20.42;4.47;;;34.50;15.40;;;;;;4973055;28;20088;-63
2022/06/14 02:49:03;;;;;;;23.13;5.05;;;34.50;16.40;;;;;;4990946;28;20471;-62
2022/06/14 02:51:37;;;;;;;21.85;4.03;;;34.30;15.80;;;;;;4987355;28;20231;-62
2022/06/14 02:54:06;;;;;;;23.48;4.72;;;34.20;15.40;;;;;;4957634;28;21604;-60
2022/06/14 02:56:50;;;;;;;29.60;4.97;;;34.20;15.40;;;;;;4972657;28;20086;-60
2022/06/14 02:59:21;;;;;;;25.67;4.57;;;34.10;15.60;;;;;;4972406;28;20132;-61
2022/06/14 03:01:54;;;;;;;30.52;4.15;;;33.90;15.90;;;;;;4971162;28;20095;-61
2022/06/14 03:04:26;;;;;;;21.30;3.92;;;33.80;16.00;;;;;;4988732;28;20519;-61
2022/06/14 03:07:09;;;;;;;21.33;3.20;;;33.60;16.10;;;;;;4972990;28;20073;-63
2022/06/14 03:09:37;;;;;;;22.13;3.35;;;33.50;16.50;;;;;;4977451;28;20548;-62
2022/06/14 03:12:09;;;;;;;20.77;2.70;;;33.40;16.70;;;;;;4974834;28;20092;-62
2022/06/14 03:14:50;;;;;;;18.33;3.25;;;33.40;16.80;;;;;;4973433;28;20098;-63
2022/06/14 03:17:39;;;;;;;27.48;4.88;;;33.20;17.00;;;;;;4987696;28;20538;-61
2022/06/14 03:20:14;;;;;;;13.60;2.40;;;33.10;17.20;;;;;;4970175;28;20675;-62
2022/06/14 03:22:41;;;;;;;10.85;2.33;;;33.10;17.10;;;;;;4990599;28;20085;-60
2022/06/14 03:25:56;;;;;;;13.23;1.90;;;32.90;17.30;;;;;;5061960;28;20072;-62
2022/06/14 03:28:50;;;;;;;18.67;2.22;;;32.90;17.60;;;;;;5007358;28;20108;-62
2022/06/14 03:31:30;;;;;;;15.23;2.75;;;32.90;17.40;;;;;;5030815;28;20139;-63
2022/06/14 03:34:26;;;;;;;12.32;2.10;;;32.70;17.50;;;;;;5030372;28;20100;-62
2022/06/14 03:36:53;;;;;;;18.25;2.22;;;32.60;17.80;;;;;;5025234;28;20134;-61
2022/06/14 03:39:24;;;;;;;12.52;2.13;;;32.60;17.70;;;;;;5029844;28;20142;-61
2022/06/14 03:41:53;;;;;;;12.48;2.17;;;32.50;17.90;;;;;;5029738;28;20076;-62
2022/06/14 03:44:22;;;;;;;10.75;1.88;;;32.50;17.70;;;;;;5029621;28;20096;-62
2022/06/14 03:47:12;;;;;;;14.73;1.90;;;32.50;17.50;;;;;;5013764;28;20080;-64
2022/06/14 03:49:50;;;;;;;12.70;1.70;;;32.50;17.60;;;;;;5029903;28;20108;-62
2022/06/14 03:52:22;;;;;;;22.60;2.15;;;32.40;17.70;;;;;;5028940;28;20107;-63
2022/06/14 03:55:07;;;;;;;20.17;2.30;;;32.30;17.30;;;;;;5026971;28;20083;-62
2022/06/14 03:57:49;;;;;;;16.77;2.00;;;32.20;17.40;;;;;;5061787;28;20125;-62
2022/06/14 04:00:28;;;;;;;31.90;2.70;;;32.20;16.70;;;;;;5029140;28;20450;-62
2022/06/14 04:03:15;;;;;;;25.05;2.17;;;32.10;16.30;;;;;;5062246;28;20069;-63
2022/06/14 04:05:47;;;;;;;10.65;2.63;;;32.00;15.60;;;;;;5013844;28;20110;-62
2022/06/14 04:08:38;;;;;;;18.60;3.20;;;32.00;15.90;;;;;;5030222;28;20134;-61
2022/06/14 04:11:30;;;;;;;33.35;2.78;;;31.90;16.20;;;;;;5029225;28;20089;-62
2022/06/14 04:14:22;;;;;;;17.55;2.05;;;31.90;16.70;;;;;;5029975;28;20065;-62
2022/06/14 04:17:11;;;;;;;12.88;2.30;;;31.80;17.10;;;;;;5030592;28;20201;-62
2022/06/14 04:20:04;;;;;;;12.63;1.70;;;31.70;17.60;;;;;;5030335;28;20078;-63
2022/06/14 04:22:55;;;;;;;16.45;2.13;;;31.70;17.00;;;;;;5030171;28;20128;-62
2022/06/14 04:25:40;;;;;;;9.10;2.10;;;31.70;17.50;;;;;;5061520;28;21100;-62
2022/06/14 04:28:16;;;;;;;9.05;1.40;;;31.60;17.20;;;;;;5025207;28;20447;-62
2022/06/14 04:31:01;;;;;;;18.75;2.15;;;31.60;17.60;;;;;;5029140;28;20083;-62
2022/06/14 04:33:55;;;;;;;7.78;1.60;;;31.50;18.00;;;;;;5029332;28;20101;-62
2022/06/14 04:36:33;;;;;;;10.57;1.67;;;31.40;18.20;;;;;;5021832;28;20077;-61
2022/06/14 04:39:18;;;;;;;8.55;1.30;;;31.20;18.70;;;;;;5061633;28;20068;-63
2022/06/14 04:42:17;;;;;;;5.80;1.38;;;31.10;18.90;;;;;;5028694;28;20076;-63
2022/06/14 04:44:51;;;;;;;7.55;1.70;;;31.00;19.50;;;;;;5027245;28;20069;-62
2022/06/14 04:47:36;;;;;;;10.07;1.55;;;30.90;19.80;;;;;;5061977;28;20134;-62
2022/06/14 04:50:20;;;;;;;12.50;1.58;;;30.80;20.20;;;;;;5060127;28;20072;-62
2022/06/14 04:52:58;;;;;;;6.55;2.08;;;30.60;20.40;;;;;;5028687;28;20081;-62
2022/06/14 04:55:35;;;;;;;10.35;2.00;;;30.50;20.50;;;;;;5026888;28;20080;-62
2022/06/14 04:58:19;;;;;;;9.05;1.90;;;30.40;20.70;;;;;;5029686;28;20519;-61
2022/06/14 05:01:02;;;;;;;13.63;1.88;;;30.30;20.70;;;;;;5029048;28;20073;-61
2022/06/14 05:03:44;;;;;;;11.68;1.88;;;30.30;20.70;;;;;;5012449;28;20168;-62
2022/06/14 05:06:13;;;;;;;6.30;1.70;;;30.10;20.50;;;;;;5061061;28;20501;-62
2022/06/14 05:08:54;;;;;;;30.08;15.45;;;30.10;20.50;;;;;;5045640;28;20100;-63
2022/06/14 05:11:40;;;;;;;11.82;2.13;;;30.00;20.70;;;;;;5027916;28;20565;-62
2022/06/14 05:14:13;;;;;;;10.18;1.67;;;29.90;20.80;;;;;;5027791;28;20073;-60
2022/06/14 05:17:20;;;;;;;11.80;2.30;;;29.80;20.90;;;;;;5031631;28;20120;-60
2022/06/14 05:20:02;;;;;;;12.82;2.17;;;29.70;21.30;;;;;;4990506;28;20157;-61
2022/06/14 05:22:41;;;;;;;17.38;2.03;;;29.60;21.40;;;;;;5024438;28;20183;-62
2022/06/14 05:25:09;;;;;;;13.75;2.28;;;29.60;21.90;;;;;;5043434;28;20171;-61
2022/06/14 05:28:04;;;;;;;9.93;1.90;;;29.60;21.40;;;;;;5027703;28;20112;-61
2022/06/14 05:31:16;;;;;;;14.07;1.95;;;29.50;21.80;;;;;;5026209;28;20081;-64
2022/06/14 05:33:55;;;;;;;16.25;2.13;;;29.50;21.50;;;;;;4988348;28;20174;-62
2022/06/14 05:36:30;;;;;;;19.85;2.28;;;29.40;21.50;;;;;;4974942;28;20100;-62
2022/06/14 05:39:10;;;;;;;9.77;2.03;;;29.40;22.00;;;;;;4988922;28;20454;-61
2022/06/14 05:41:47;;;;;;;7.28;1.70;;;29.40;22.30;;;;;;4988201;28;20156;-63
2022/06/14 05:44:23;;;;;;;7.53;2.00;;;29.30;22.50;;;;;;4978533;28;20111;-62
2022/06/14 05:46:55;;;;;;;14.13;2.13;;;29.30;22.10;;;;;;4974193;28;20510;-62
2022/06/14 05:49:24;;;;;;;13.68;2.03;;;29.10;21.80;;;;;;4991908;28;20085;-62
2022/06/14 05:52:17;;;;;;;12.93;2.05;;;29.00;21.90;;;;;;5003078;28;20121;-62
2022/06/14 05:55:10;;;;;;;21.92;2.50;;;28.90;22.50;;;;;;4986906;28;20089;-62
2022/06/14 05:58:17;;;;;;;10.32;2.20;;;28.90;21.60;;;;;;4988245;28;20085;-62
2022/06/14 06:01:06;;;;;;;17.05;1.95;;;28.80;21.60;;;;;;4957665;28;20090;-62
2022/06/14 06:03:56;;;;;;;15.43;2.00;;;28.80;21.10;;;;;;4928928;28;20099;-62
2022/06/14 06:06:31;;;;;;;15.60;2.10;;;28.80;20.20;;;;;;4969780;28;20086;-62
2022/06/14 06:09:53;;;;;;;8.50;1.75;;;28.80;19.80;;;;;;4970942;28;20069;-62
2022/06/14 06:12:31;;;;;;;9.77;1.98;;;28.80;19.20;;;;;;4886413;29;20108;-59
2022/06/14 06:15:28;;;;;;;4.85;1.38;;;28.80;18.70;;;;;;4885410;29;20630;-60
2022/06/14 06:18:28;;;;;;;9.93;1.88;;;28.90;18.10;;;;;;4876486;29;20098;-61
2022/06/14 06:21:10;;;;;;;6.85;1.67;;;29.00;17.90;;;;;;4903300;29;20099;-60
2022/06/14 06:23:51;;;;;;;6.13;1.90;;;29.00;17.10;;;;;;4886865;29;20451;-61
2022/06/14 06:26:21;;;;;;;7.07;1.48;;;29.10;17.30;;;;;;4890741;29;20103;-60
2022/06/14 06:28:54;;;;;;;10.90;1.65;;;29.10;16.80;;;;;;4872707;29;20483;-60
2022/06/14 06:31:28;;;;;;;7.50;1.77;;;29.10;16.60;;;;;;4919572;28;20126;-59
2022/06/14 06:33:56;;;;;;;6.88;1.85;;;29.00;16.50;;;;;;4943645;29;20074;-60
2022/06/14 06:36:33;;;;;;;7.07;1.60;;;29.00;16.60;;;;;;4956092;28;20469;-60
2022/06/14 06:39:25;;;;;;;14.23;1.73;;;29.00;17.00;;;;;;4961975;28;20161;-59
2022/06/14 06:42:05;;;;;;;7.65;1.48;;;29.00;17.20;;;;;;4960629;28;20185;-60
2022/06/14 06:44:47;;;;;;;7.63;1.63;;;28.90;17.70;;;;;;4944905;28;20190;-61
2022/06/14 06:47:22;;;;;;;10.50;1.77;;;28.80;18.30;;;;;;4960954;28;20094;-61
2022/06/14 06:50:01;;;;;;;6.77;1.77;;;28.70;18.90;;;;;;5044452;28;20546;-62
2022/06/14 06:52:38;;;;;;;12.95;1.80;;;28.50;19.10;;;;;;5059122;28;20096;-61
2022/06/14 06:55:13;;;;;;;6.70;1.70;;;28.50;19.10;;;;;;5010977;28;20093;-61
2022/06/14 06:57:43;;;;;;;7.85;2.13;;;28.50;19.00;;;;;;5011381;28;20430;-59
2022/06/14 07:00:13;;;;;;;9.68;2.05;;;28.40;19.50;;;;;;5044280;28;20109;-60
2022/06/14 07:02:45;;;;;;;10.07;2.10;;;28.40;19.30;;;;;;5028220;28;20099;-61
2022/06/14 07:05:17;;;;;;;8.70;1.60;;;28.40;19.10;;;;;;5027188;28;20524;-61
2022/06/14 07:08:04;;;;;;;6.20;1.52;;;28.40;19.50;;;;;;5061522;28;20183;-60
2022/06/14 07:10:38;;;;;;;;;;;28.30;19.80;;;;;;5028410;28;20102;-61
2022/06/14 07:13:24;;;;;;;11.30;1.50;;;28.20;19.80;;;;;;5029324;28;19967;-61
2022/06/14 07:16:29;;;;;;;7.70;1.88;;;28.20;19.30;;;;;;5035078;28;20081;-62
2022/06/14 07:19:30;;;;;;;9.52;2.17;;;28.10;19.70;;;;;;5030174;28;20080;-59
2022/06/14 07:22:10;;;;;;;8.55;2.05;;;28.10;21.60;;;;;;5031904;28;20121;-60
2022/06/14 07:24:47;;;;;;;11.55;2.35;;;28.00;22.60;;;;;;5030273;28;20118;-60
2022/06/14 07:27:17;;;;;;;8.55;2.20;;;27.90;22.90;;;;;;5047820;28;20068;-60
2022/06/14 07:29:50;;;;;;;12.45;2.20;;;27.80;23.40;;;;;;5014343;28;20082;-59
2022/06/14 07:32:25;;;;;;;11.63;1.77;;;27.80;23.30;;;;;;5028524;28;20573;-60
2022/06/14 07:34:52;;;;;;;6.25;2.17;;;27.80;23.50;;;;;;5057712;28;20069;-60
2022/06/14 07:37:28;;;;;;;7.72;2.20;;;27.80;23.20;;;;;;5032491;28;20084;-60
2022/06/14 07:40:02;;;;;;;12.02;2.30;;;27.80;23.10;;;;;;5030259;28;20077;-60
2022/06/14 07:42:42;;;;;;;9.30;2.13;;;27.60;23.80;;;;;;5032840;28;20072;-60
2022/06/14 07:45:23;;;;;;;9.82;2.55;;;27.60;25.10;;;;;;5062676;28;20132;-60
2022/06/14 07:48:39;;;;;;;17.83;2.20;;;27.30;25.40;;;;;;5029353;28;20103;-59
2022/06/14 07:51:24;;;;;;;7.38;2.13;;;27.30;25.40;;;;;;4954095;28;20912;-60
2022/06/14 07:54:21;;;;;;;9.68;2.50;;;27.30;25.60;;;;;;4970905;28;20181;-62
2022/06/14 07:56:55;;;;;;;5.18;1.90;;;27.20;25.40;;;;;;4963524;28;20095;-60
2022/06/14 07:59:33;;;;;;;7.18;1.70;;;27.20;25.00;;;;;;4939216;28;20168;-62
2022/06/14 08:02:26;;;;;;;9.75;1.73;;;27.20;25.00;;;;;;4953808;28;20078;-61
2022/06/14 08:04:59;;;;;;;7.47;2.03;;;27.30;24.90;;;;;;4971816;28;20233;-61
2022/06/14 08:07:27;;;;;;;6.53;1.75;;;27.30;24.80;;;;;;4953253;28;20413;-61
2022/06/14 08:10:18;;;;;;;10.77;1.75;;;27.30;24.50;;;;;;4969594;28;20105;-61
2022/06/14 08:12:59;;;;;;;8.55;2.22;;;27.40;24.60;;;;;;4970684;28;20102;-61
2022/06/14 08:15:46;;;;;;;6.13;1.60;;;27.50;24.50;;;;;;4956339;28;20089;-60
2022/06/14 08:18:24;;;;;;;6.40;1.73;;;27.60;24.90;;;;;;4964935;28;20175;-61
2022/06/14 08:20:58;;;;;;;7.53;1.90;;;27.60;23.90;;;;;;4965116;28;20126;-61
2022/06/14 08:23:31;;;;;;;9.10;1.60;;;27.70;23.70;;;;;;4953983;28;20092;-61
2022/06/14 08:26:07;;;;;;;9.25;1.70;;;27.70;23.80;;;;;;5020599;28;20161;-62
2022/06/14 08:29:15;;;;;;;24.57;2.33;;;27.70;25.80;;;;;;5045842;28;20109;-61
2022/06/14 08:32:02;;;;;;;15.07;2.30;;;27.60;26.10;;;;;;4989500;28;20188;-61
2022/06/14 08:34:40;;;;;;;7.53;1.73;;;27.50;25.90;;;;;;4996111;28;20073;-62
2022/06/14 08:37:17;;;;;;;10.13;1.88;;;27.40;26.00;;;;;;4994896;28;20078;-61
2022/06/14 08:40:10;;;;;;;5.95;2.03;;;27.20;26.00;;;;;;4996024;28;20195;-61
2022/06/14 08:42:42;;;;;;;8.45;2.03;;;27.30;25.60;;;;;;4984565;28;20180;-61
2022/06/14 08:45:38;;;;;;;7.47;1.77;;;27.30;25.10;;;;;;4990667;28;20074;-60
2022/06/14 08:48:24;;;;;;;4.53;1.58;;;27.30;25.10;;;;;;4997825;28;20657;-61
2022/06/14 08:51:22;;;;;;;9.38;2.00;;;27.30;25.20;;;;;;4981944;28;20544;-60
2022/06/14 08:54:13;;;;;;;4.45;1.52;;;27.40;25.20;;;;;;4993268;28;20081;-61
2022/06/14 08:57:02;;;;;;;6.95;1.98;;;27.40;25.00;;;;;;4982362;28;20077;-61
2022/06/14 08:59:56;;;;;;;6.97;1.45;;;27.40;25.10;;;;;;4979239;28;20087;-61
2022/06/14 09:02:52;;;;;;;11.88;1.60;;;27.40;24.90;;;;;;4992622;28;20157;-60
2022/06/14 09:05:33;;;;;;;7.18;1.50;;;27.40;24.70;;;;;;4988194;28;20558;-60
2022/06/14 09:08:19;;;;;;;5.43;1.55;;;27.40;24.40;;;;;;4992162;28;20093;-61
2022/06/14 09:10:58;;;;;;;8.70;1.73;;;27.40;24.20;;;;;;5008019;28;20102;-62
2022/06/14 09:13:24;;;;;;;6.25;1.75;;;27.40;24.40;;;;;;5025090;28;20081;-59
2022/06/14 09:15:53;;;;;;;6.25;1.63;;;27.40;24.60;;;;;;5026847;28;20167;-61
2022/06/14 09:18:40;;;;;;;3.67;1.40;;;27.40;24.60;;;;;;5023368;28;20074;-60
2022/06/14 09:21:40;;;;;;;8.15;1.65;;;27.40;24.60;;;;;;5024235;28;20111;-58
2022/06/14 09:24:18;;;;;;;8.43;1.77;;;27.30;25.10;;;;;;5006239;28;20170;-61
2022/06/14 09:26:44;;;;;;;10.40;2.70;;;27.00;26.90;;;;;;5007888;28;20494;-61
2022/06/14 09:29:47;;;;;;;8.05;2.72;;;26.90;27.80;;;;;;5022102;28;20140;-61
2022/06/14 09:36:07;;;;;;;8.38;1.60;;;26.60;28.60;;;;;;5007375;28;20167;-60
2022/06/14 09:39:19;;;;;;;12.60;1.90;;;26.50;28.30;;;;;;5022927;28;20640;-61
2022/06/14 09:42:01;;;;;;;9.00;1.98;;;26.50;28.00;;;;;;5033180;28;20097;-60
2022/06/14 09:44:53;;;;;;;8.77;2.38;;;26.40;28.00;;;;;;5061414;28;20101;-62
2022/06/14 09:47:58;;;;;;;5.25;1.83;;;26.50;27.90;;;;;;5023411;28;20127;-61
2022/06/14 09:50:42;;;;;;;12.90;2.40;;;26.50;27.90;;;;;;5060733;28;20104;-60
2022/06/14 09:53:32;;;;;;;7.47;1.65;;;26.50;27.60;;;;;;5028088;28;20094;-60
2022/06/14 09:56:17;;;;;;;13.23;2.40;;;26.50;27.50;;;;;;5026924;28;20394;-60
2022/06/14 09:59:02;;;;;;;9.32;2.58;;;26.40;27.60;;;;;;5060613;28;20068;-62
2022/06/14 10:01:41;;;;;;;6.45;1.90;;;26.40;27.70;;;;;;5028687;28;20427;-60
2022/06/14 10:04:31;;;;;;;12.52;2.13;;;26.40;27.60;;;;;;5030931;28;20546;-61
2022/06/14 10:07:20;;;;;;;9.70;1.90;;;26.20;27.60;;;;;;5011410;28;20183;-61
2022/06/14 10:10:36;;;;;;;7.07;1.65;;;26.20;27.80;;;;;;5027892;28;20068;-61
2022/06/14 10:13:11;;;;;;;6.47;2.58;;;26.20;27.70;;;;;;4994664;28;20081;-61
2022/06/14 10:15:37;;;;;;;9.95;2.70;;;26.10;27.80;;;;;;5006295;28;20091;-62
2022/06/14 10:18:27;;;;;;;12.07;3.50;;;26.00;27.90;;;;;;5006380;28;20609;-61
2022/06/14 10:20:58;;;;;;;15.35;4.30;;;25.90;28.70;;;;;;5006960;28;20094;-62
2022/06/14 10:24:02;;;;;;;11.38;4.22;;;25.70;29.50;;;;;;5006813;28;20112;-60
2022/06/14 10:29:55;;;;;;;11.05;4.60;;;25.50;30.20;;;;;;4993805;28;20647;-60
2022/06/14 10:32:45;;;;;;;18.23;4.88;;;25.60;29.40;;;;;;5004869;28;20555;-60
2022/06/14 10:35:41;;;;;;;16.00;4.88;;;25.70;29.50;;;;;;5005788;28;20443;-61
2022/06/14 10:38:22;;;;;;;22.95;5.35;;;25.60;29.00;;;;;;4990741;28;20070;-62
2022/06/14 10:41:15;;;;;;;21.40;4.65;;;25.60;29.40;;;;;;4973076;28;20082;-62
2022/06/14 10:43:50;;;;;;;17.75;5.18;;;25.60;30.60;;;;;;5006561;28;20443;-60
2022/06/14 10:46:43;;;;;;;17.35;4.93;;;25.60;29.60;;;;;;5006526;28;20505;-58
2022/06/14 10:49:37;;;;;;;15.85;4.13;;;25.50;30.40;;;;;;5007559;28;20085;-59
2022/06/14 10:52:19;;;;;;;13.55;3.45;;;25.50;29.90;;;;;;5064040;28;20493;-61
2022/06/14 10:55:30;;;;;;;15.48;3.72;;;25.50;29.60;;;;;;5032825;28;20095;-60
2022/06/14 10:58:30;;;;;;;10.95;3.53;;;25.40;29.30;;;;;;5011578;28;20471;-61
2022/06/14 11:01:05;;;;;;;11.93;4.30;;;25.40;29.50;;;;;;5012946;28;20068;-61
2022/06/14 11:03:48;;;;;;;13.40;4.50;;;25.30;30.40;;;;;;5030127;28;20069;-61
2022/06/14 11:06:36;;;;;;;13.48;4.10;;;25.20;30.80;;;;;;4995486;28;20077;-61
2022/06/14 11:09:11;;;;;;;15.00;4.40;;;25.10;31.20;;;;;;5029610;28;20100;-62
2022/06/14 11:11:46;;;;;;;18.25;4.72;;;24.90;31.70;;;;;;5012670;28;20084;-61
2022/06/14 11:14:58;;;;;;;12.55;3.65;;;25.00;31.30;;;;;;5013269;28;20122;-61
2022/06/14 11:17:42;;;;;;;18.98;3.08;;;25.10;31.40;;;;;;4970290;28;20081;-61
2022/06/14 11:20:27;;;;;;;13.13;2.95;;;25.10;31.00;;;;;;4953807;28;20568;-61
2022/06/14 11:23:06;;;;;;;12.18;3.08;;;25.10;30.70;;;;;;4970519;28;20533;-62
2022/06/14 11:25:37;;;;;;;11.45;3.53;;;25.10;30.10;;;;;;4953874;28;20085;-62
2022/06/14 11:28:09;;;;;;;15.88;4.82;;;25.10;30.00;;;;;;4954867;28;20507;-61
2022/06/14 11:30:53;;;;;;;15.05;4.70;;;25.10;29.80;;;;;;4969798;28;20074;-61
2022/06/14 11:33:31;;;;;;;20.65;6.22;;;25.10;29.70;;;;;;4970694;28;20085;-62
2022/06/14 11:36:00;;;;;;;16.02;4.25;;;25.10;29.70;;;;;;4990944;28;20117;-61
2022/06/14 11:38:41;;;;;;;19.38;5.38;;;25.10;30.20;;;;;;4984950;28;20116;-61
2022/06/14 11:41:10;;;;;;;22.13;5.15;;;25.10;31.00;;;;;;5000979;28;20548;-61
2022/06/14 11:43:45;;;;;;;20.50;5.38;;;25.10;31.80;;;;;;4969657;28;20563;-61
2022/06/14 11:46:48;;;;;;;29.27;8.35;;;25.00;32.20;;;;;;4982199;28;20081;-61
2022/06/14 11:49:29;;;;;;;22.92;7.57;;;24.80;32.10;;;;;;5000515;28;20093;-61
2022/06/14 11:52:01;;;;;;;30.38;11.35;;;24.80;31.50;;;;;;5019366;28;20832;-61
2022/06/14 11:54:57;;;;;;;28.23;11.68;;;24.80;30.90;;;;;;5029990;28;20065;-61
2022/06/14 11:57:50;;;;;;;38.10;13.50;;;24.80;31.20;;;;;;5026073;28;20096;-61
2022/06/14 12:00:46;;;;;;;31.65;11.82;;;24.70;32.40;;;;;;5013285;28;20101;-61
2022/06/14 12:04:09;;;;;;;29.92;12.23;;;24.80;31.40;;;;;;5027619;28;20538;-61
2022/06/14 12:07:02;;;;;;;26.67;11.75;;;24.60;32.30;;;;;;5009747;28;20084;-61
2022/06/14 12:10:05;;;;;;;29.17;10.63;;;24.60;31.90;;;;;;5009071;28;20127;-61
2022/06/14 12:12:37;;;;;;;28.15;9.57;;;24.60;32.00;;;;;;5009472;28;20088;-62
2022/06/14 12:15:03;;;;;;;34.25;8.25;;;24.50;32.50;;;;;;5008303;28;20090;-62
2022/06/14 12:17:57;;;;;;;23.13;7.95;;;24.50;33.00;;;;;;4992451;28;20086;-60
2022/06/14 12:20:25;;;;;;;30.27;7.32;;;24.40;33.10;;;;;;5008262;28;20089;-61
2022/06/14 12:22:58;;;;;;;21.42;6.25;;;24.40;32.60;;;;;;5007830;28;20085;-60
2022/06/14 12:28:58;;;;;;;27.55;5.80;;;24.40;32.10;;;;;;5008410;28;20159;-62
2022/06/14 12:31:50;;;;;;;23.88;5.20;;;24.50;31.90;;;;;;4992416;28;20137;-61
2022/06/14 12:34:31;;;;;;;20.08;5.00;;;24.40;32.00;;;;;;4989795;28;20433;-61
2022/06/14 12:37:22;;;;;;;15.52;4.28;;;24.30;31.90;;;;;;5004042;28;20080;-64
2022/06/14 12:40:08;;;;;;;25.30;4.03;;;24.30;31.90;;;;;;5030716;28;20085;-62
2022/06/14 12:42:48;;;;;;;16.92;3.58;;;24.30;31.80;;;;;;5030976;28;20152;-67
2022/06/14 12:45:20;;;;;;;18.45;3.92;;;24.30;31.80;;;;;;5046621;28;20081;-66
2022/06/14 12:48:05;;;;;;;22.73;4.00;;;24.30;31.80;;;;;;5045757;28;20072;-65
2022/06/14 12:50:37;;;;;;;25.80;4.82;;;24.20;32.30;;;;;;5029193;28;20073;-64
2022/06/14 12:53:19;;;;;;;22.35;5.10;;;24.10;32.80;;;;;;5028755;28;20226;-68
2022/06/14 12:55:59;;;;;;;37.38;6.30;;;24.10;33.00;;;;;;5028941;28;20069;-65
2022/06/14 12:59:13;;;;;;;54.53;8.20;;;24.00;33.60;;;;;;5045941;28;20100;-63
2022/06/14 13:01:51;;;;;;;63.22;7.47;;;24.00;35.20;;;;;;5017518;28;20081;-60
2022/06/14 13:04:39;;;;;;;40.53;6.65;;;24.00;34.40;;;;;;5012048;28;20068;-63
2022/06/14 13:07:35;;;;;;;28.08;6.07;;;24.00;34.40;;;;;;5029530;28;20101;-61
2022/06/14 13:10:24;;;;;;;33.72;6.65;;;24.10;34.90;;;;;;5018235;28;20093;-61
2022/06/14 13:13:06;;;;;;;31.08;6.43;;;24.10;35.70;;;;;;5028398;28;20172;-63
2022/06/14 13:15:51;;;;;;;23.70;6.13;;;24.10;35.20;;;;;;5029232;28;20088;-61
2022/06/14 13:18:50;;;;;;;39.58;6.28;;;24.20;35.10;;;;;;5028922;28;20073;-61
2022/06/14 13:21:41;;;;;;;34.47;6.03;;;24.20;35.90;;;;;;5018624;28;20093;-60
2022/06/14 13:24:38;;;;;;;29.85;5.80;;;24.30;35.90;;;;;;5028779;28;20469;-62
2022/06/14 13:27:22;;;;;;;17.93;5.10;;;24.40;35.00;;;;;;5060844;28;20080;-60
2022/06/14 13:30:04;;;;;;;25.27;5.60;;;24.50;35.50;;;;;;5044551;28;20088;-62
2022/06/14 13:33:23;;;;;;;63.55;8.25;;;24.50;35.60;;;;;;5027581;28;20093;-60
2022/06/14 13:36:28;;;;;;;46.97;6.65;;;24.60;35.50;;;;;;5011799;28;20073;-59
2022/06/14 13:39:21;;;;;;;34.53;4.38;;;24.70;36.00;;;;;;4953593;28;20103;-60
2022/06/14 13:42:03;;;;;;;17.38;3.78;;;24.70;32.10;;;;;;5007588;28;20610;-60
2022/06/14 13:44:38;;;;;;;29.08;4.38;;;24.80;31.10;;;;;;5007324;28;20155;-61
2022/06/14 13:47:50;;;;;;;23.13;3.83;;;24.90;31.20;;;;;;5007105;28;20065;-60
2022/06/14 13:50:29;;;;;;;24.95;3.72;;;25.00;31.10;;;;;;5006899;28;20543;-60
2022/06/14 13:52:55;;;;;;;26.60;3.92;;;25.10;30.90;;;;;;4990623;28;20139;-60
2022/06/14 13:55:29;;;;;;;18.70;3.03;;;25.10;30.60;;;;;;5006886;28;20073;-60
2022/06/14 13:58:19;;;;;;;20.10;3.42;;;25.30;30.80;;;;;;4974179;28;20139;-60
2022/06/14 14:01:00;;;;;;;32.38;3.70;;;25.30;30.80;;;;;;4990811;28;20528;-61
2022/06/14 14:03:55;;;;;;;24.33;3.80;;;25.40;31.40;;;;;;5006869;28;20511;-61
2022/06/14 14:06:39;;;;;;;20.52;3.83;;;25.40;31.30;;;;;;4990322;28;20108;-60
2022/06/14 14:09:11;;;;;;;32.70;3.78;;;25.60;31.70;;;;;;5018184;28;20107;-61
2022/06/14 14:12:01;;;;;;;20.50;4.13;;;25.70;31.60;;;;;;5027367;28;20489;-59